sensor_id;sensor_type;location;lat;lon;timestamp;pressure;altitude;pressure_sealevel;temperature;humidity
65376;BME280;51976;47.332;9.404;2024-01-06T00:00:27;91469.47;;;2.66;100.00
65376;BME280;51976;47.332;9.404;2024-01-06T00:02:53;91471.88;;;2.67;100.00
65376;BME280;51976;47.332;9.404;2024-01-06T00:05:18;91467.34;;;2.63;100.00
65376;BME280;51976;47.332;9.404;2024-01-06T00:07:44;91478.78;;;2.68;100.00
65376;BME280;51976;47.332;9.404;2024-01-06T00:10:09;91476.13;;;2.58;100.00
65376;BME280;51976;47.332;9.404;2024-01-06T00:12:34;91477.47;;;2.66;100.00
65376;BME280;51976;47.332;9.404;2024-01-06T00:15:00;91472.41;;;2.64;100.00
65376;BME280;51976;47.332;9.404;2024-01-06T00:17:25;91469.47;;;2.56;100.00
65376;BME280;51976;47.332;9.404;2024-01-06T00:19:51;91470.78;;;2.48;100.00
65376;BME280;51976;47.332;9.404;2024-01-06T00:22:17;91485.97;;;2.53;100.00
65376;BME280;51976;47.332;9.404;2024-01-06T00:24:43;91468.41;;;2.52;100.00
65376;BME280;51976;47.332;9.404;2024-01-06T00:27:09;91476.66;;;2.50;100.00
65376;BME280;51976;47.332;9.404;2024-01-06T00:29:34;91472.13;;;2.51;100.00
65376;BME280;51976;47.332;9.404;2024-01-06T00:31:59;91476.38;;;2.47;100.00
65376;BME280;51976;47.332;9.404;2024-01-06T00:34:25;91479.34;;;2.45;100.00
65376;BME280;51976;47.332;9.404;2024-01-06T00:36:50;91479.31;;;2.35;100.00
65376;BME280;51976;47.332;9.404;2024-01-06T00:39:16;91484.34;;;2.47;100.00
65376;BME280;51976;47.332;9.404;2024-01-06T00:41:41;91487.56;;;2.49;100.00
65376;BME280;51976;47.332;9.404;2024-01-06T00:44:06;91495.28;;;2.60;100.00
65376;BME280;51976;47.332;9.404;2024-01-06T00:46:32;91503.78;;;2.57;100.00
65376;BME280;51976;47.332;9.404;2024-01-06T00:48:57;91496.88;;;2.41;100.00
65376;BME280;51976;47.332;9.404;2024-01-06T00:51:22;91508.84;;;2.38;100.00
65376;BME280;51976;47.332;9.404;2024-01-06T00:53:48;91510.19;;;2.46;100.00
65376;BME280;51976;47.332;9.404;2024-01-06T00:56:13;91502.72;;;2.53;100.00
65376;BME280;51976;47.332;9.404;2024-01-06T00:58:38;91502.19;;;2.56;100.00
65376;BME280;51976;47.332;9.404;2024-01-06T01:01:04;91497.69;;;2.62;100.00
65376;BME280;51976;47.332;9.404;2024-01-06T01:03:29;91503.50;;;2.49;100.00
65376;BME280;51976;47.332;9.404;2024-01-06T01:05:55;91501.91;;;2.48;100.00
65376;BME280;51976;47.332;9.404;2024-01-06T01:08:20;91505.66;;;2.57;100.00
65376;BME280;51976;47.332;9.404;2024-01-06T01:10:45;91499.00;;;2.54;100.00
65376;BME280;51976;47.332;9.404;2024-01-06T01:13:11;91510.44;;;2.50;100.00
65376;BME280;51976;47.332;9.404;2024-01-06T01:15:36;91520.03;;;2.46;100.00
65376;BME280;51976;47.332;9.404;2024-01-06T01:18:02;91512.06;;;2.46;100.00
65376;BME280;51976;47.332;9.404;2024-01-06T01:20:27;91514.97;;;2.44;100.00
65376;BME280;51976;47.332;9.404;2024-01-06T01:22:52;91519.47;;;2.49;100.00
65376;BME280;51976;47.332;9.404;2024-01-06T01:25:18;91520.28;;;2.44;100.00
65376;BME280;51976;47.332;9.404;2024-01-06T01:27:43;91523.75;;;2.45;100.00
65376;BME280;51976;47.332;9.404;2024-01-06T01:30:09;91531.19;;;2.48;100.00
65376;BME280;51976;47.332;9.404;2024-01-06T01:32:34;91534.91;;;2.52;100.00
65376;BME280;51976;47.332;9.404;2024-01-06T01:35:00;91537.81;;;2.50;100.00
65376;BME280;51976;47.332;9.404;2024-01-06T01:37:25;91538.09;;;2.49;100.00
65376;BME280;51976;47.332;9.404;2024-01-06T01:39:50;91540.75;;;2.54;100.00
65376;BME280;51976;47.332;9.404;2024-01-06T01:42:16;91540.22;;;2.47;100.00
65376;BME280;51976;47.332;9.404;2024-01-06T01:44:41;91541.84;;;2.43;100.00
65376;BME280;51976;47.332;9.404;2024-01-06T01:47:06;91550.56;;;2.28;100.00
65376;BME280;51976;47.332;9.404;2024-01-06T01:49:32;91555.34;;;2.21;100.00
65376;BME280;51976;47.332;9.404;2024-01-06T01:51:58;91566.81;;;2.36;100.00
65376;BME280;51976;47.332;9.404;2024-01-06T01:54:24;91562.81;;;2.34;100.00
65376;BME280;51976;47.332;9.404;2024-01-06T01:56:50;91563.31;;;2.21;100.00
65376;BME280;51976;47.332;9.404;2024-01-06T01:59:18;91567.34;;;2.33;100.00
65376;BME280;51976;47.332;9.404;2024-01-06T02:01:44;91550.34;;;2.40;100.00
65376;BME280;51976;47.332;9.404;2024-01-06T02:04:09;91560.41;;;2.22;100.00
65376;BME280;51976;47.332;9.404;2024-01-06T02:06:35;91563.31;;;2.16;100.00
65376;BME280;51976;47.332;9.404;2024-01-06T02:09:00;91556.41;;;2.25;100.00
65376;BME280;51976;47.332;9.404;2024-01-06T02:11:26;91554.00;;;2.13;100.00
65376;BME280;51976;47.332;9.404;2024-01-06T02:13:51;91550.03;;;2.21;100.00
65376;BME280;51976;47.332;9.404;2024-01-06T02:16:17;91562.56;;;2.35;100.00
65376;BME280;51976;47.332;9.404;2024-01-06T02:18:42;91564.41;;;2.30;100.00
65376;BME280;51976;47.332;9.404;2024-01-06T02:21:07;91566.50;;;2.23;100.00
65376;BME280;51976;47.332;9.404;2024-01-06T02:23:35;91559.88;;;2.25;100.00
65376;BME280;51976;47.332;9.404;2024-01-06T02:26:01;91557.75;;;2.32;100.00
65376;BME280;51976;47.332;9.404;2024-01-06T02:28:26;91571.59;;;2.29;100.00
65376;BME280;51976;47.332;9.404;2024-01-06T02:30:51;91563.34;;;2.31;100.00
65376;BME280;51976;47.332;9.404;2024-01-06T02:33:17;91570.00;;;2.33;100.00
65376;BME280;51976;47.332;9.404;2024-01-06T02:35:45;91567.34;;;2.38;100.00
65376;BME280;51976;47.332;9.404;2024-01-06T02:38:10;91565.19;;;2.30;100.00
65376;BME280;51976;47.332;9.404;2024-01-06T02:40:36;91567.88;;;2.35;100.00
65376;BME280;51976;47.332;9.404;2024-01-06T02:43:01;91574.28;;;2.45;100.00
65376;BME280;51976;47.332;9.404;2024-01-06T02:45:27;91567.88;;;2.51;100.00
65376;BME280;51976;47.332;9.404;2024-01-06T02:47:52;91568.97;;;2.55;100.00
65376;BME280;51976;47.332;9.404;2024-01-06T02:50:17;91571.63;;;2.55;100.00
65376;BME280;51976;47.332;9.404;2024-01-06T02:52:44;91575.34;;;2.54;100.00
65376;BME280;51976;47.332;9.404;2024-01-06T02:55:10;91570.53;;;2.51;100.00
65376;BME280;51976;47.332;9.404;2024-01-06T02:57:38;91573.22;;;2.56;100.00
65376;BME280;51976;47.332;9.404;2024-01-06T03:00:04;91573.75;;;2.58;100.00
65376;BME280;51976;47.332;9.404;2024-01-06T03:02:29;91568.69;;;2.56;100.00
65376;BME280;51976;47.332;9.404;2024-01-06T03:04:55;91584.66;;;2.46;100.00
65376;BME280;51976;47.332;9.404;2024-01-06T03:07:20;91583.28;;;2.33;100.00
65376;BME280;51976;47.332;9.404;2024-01-06T03:09:46;91580.91;;;2.37;100.00
65376;BME280;51976;47.332;9.404;2024-01-06T03:12:11;91583.06;;;2.45;100.00
65376;BME280;51976;47.332;9.404;2024-01-06T03:14:37;91587.56;;;2.50;100.00
65376;BME280;51976;47.332;9.404;2024-01-06T03:17:04;91582.53;;;2.53;100.00
65376;BME280;51976;47.332;9.404;2024-01-06T03:19:30;91580.41;;;2.55;100.00
65376;BME280;51976;47.332;9.404;2024-01-06T03:21:56;91587.84;;;2.48;100.00
65376;BME280;51976;47.332;9.404;2024-01-06T03:24:25;91578.28;;;2.42;100.00
65376;BME280;51976;47.332;9.404;2024-01-06T03:26:51;91579.84;;;2.33;100.00
65376;BME280;51976;47.332;9.404;2024-01-06T03:29:16;91584.06;;;2.24;100.00
65376;BME280;51976;47.332;9.404;2024-01-06T03:31:43;91584.34;;;2.17;100.00
65376;BME280;51976;47.332;9.404;2024-01-06T03:34:08;91590.16;;;2.19;100.00
65376;BME280;51976;47.332;9.404;2024-01-06T03:36:34;91591.25;;;2.23;100.00
65376;BME280;51976;47.332;9.404;2024-01-06T03:38:59;91583.53;;;2.27;100.00
65376;BME280;51976;47.332;9.404;2024-01-06T03:41:25;91590.47;;;2.33;100.00
65376;BME280;51976;47.332;9.404;2024-01-06T03:43:50;91589.91;;;2.26;100.00
65376;BME280;51976;47.332;9.404;2024-01-06T03:46:15;91599.75;;;2.25;100.00
65376;BME280;51976;47.332;9.404;2024-01-06T03:48:41;91592.28;;;2.22;100.00
65376;BME280;51976;47.332;9.404;2024-01-06T03:51:07;91592.03;;;2.24;100.00
65376;BME280;51976;47.332;9.404;2024-01-06T03:53:32;91593.63;;;2.25;100.00
65376;BME280;51976;47.332;9.404;2024-01-06T03:55:57;91599.22;;;2.23;100.00
65376;BME280;51976;47.332;9.404;2024-01-06T03:58:23;91595.47;;;2.19;100.00
65376;BME280;51976;47.332;9.404;2024-01-06T04:00:48;91600.53;;;2.11;100.00
65376;BME280;51976;47.332;9.404;2024-01-06T04:03:14;91597.63;;;2.22;100.00
65376;BME280;51976;47.332;9.404;2024-01-06T04:05:39;91604.28;;;2.25;100.00
65376;BME280;51976;47.332;9.404;2024-01-06T04:08:05;91599.22;;;2.28;100.00
65376;BME280;51976;47.332;9.404;2024-01-06T04:10:30;91598.69;;;2.26;100.00
65376;BME280;51976;47.332;9.404;2024-01-06T04:12:56;91607.72;;;2.25;100.00
65376;BME280;51976;47.332;9.404;2024-01-06T04:15:21;91605.88;;;2.31;100.00
65376;BME280;51976;47.332;9.404;2024-01-06T04:17:48;91606.16;;;2.29;100.00
65376;BME280;51976;47.332;9.404;2024-01-06T04:20:14;91612.00;;;2.26;100.00
65376;BME280;51976;47.332;9.404;2024-01-06T04:22:39;91614.13;;;2.29;100.00
65376;BME280;51976;47.332;9.404;2024-01-06T04:25:04;91612.00;;;2.31;100.00
65376;BME280;51976;47.332;9.404;2024-01-06T04:27:30;91619.19;;;2.31;100.00
65376;BME280;51976;47.332;9.404;2024-01-06T04:29:56;91618.16;;;2.37;100.00
65376;BME280;51976;47.332;9.404;2024-01-06T04:32:21;91628.25;;;2.40;100.00
65376;BME280;51976;47.332;9.404;2024-01-06T04:34:47;91634.38;;;2.41;100.00
65376;BME280;51976;47.332;9.404;2024-01-06T04:37:12;91632.25;;;2.43;100.00
65376;BME280;51976;47.332;9.404;2024-01-06T04:39:38;91632.00;;;2.44;100.00
65376;BME280;51976;47.332;9.404;2024-01-06T04:42:04;91634.91;;;2.48;100.00
65376;BME280;51976;47.332;9.404;2024-01-06T04:44:29;91630.91;;;2.40;100.00
65376;BME280;51976;47.332;9.404;2024-01-06T04:46:55;91629.31;;;2.34;100.00
65376;BME280;51976;47.332;9.404;2024-01-06T04:49:20;91629.25;;;2.24;100.00
65376;BME280;51976;47.332;9.404;2024-01-06T04:51:47;91633.25;;;2.26;100.00
65376;BME280;51976;47.332;9.404;2024-01-06T04:54:12;91635.13;;;2.31;100.00
65376;BME280;51976;47.332;9.404;2024-01-06T04:56:38;91633.31;;;2.36;100.00
65376;BME280;51976;47.332;9.404;2024-01-06T04:59:03;91636.50;;;2.38;100.00
65376;BME280;51976;47.332;9.404;2024-01-06T05:01:29;91631.69;;;2.35;100.00
65376;BME280;51976;47.332;9.404;2024-01-06T05:03:54;91630.09;;;2.29;100.00
65376;BME280;51976;47.332;9.404;2024-01-06T05:06:19;91642.31;;;2.30;100.00
65376;BME280;51976;47.332;9.404;2024-01-06T05:08:45;91640.19;;;2.32;100.00
65376;BME280;51976;47.332;9.404;2024-01-06T05:11:12;91646.59;;;2.36;100.00
65376;BME280;51976;47.332;9.404;2024-01-06T05:13:37;91649.25;;;2.36;100.00
65376;BME280;51976;47.332;9.404;2024-01-06T05:16:03;91645.78;;;2.31;100.00
65376;BME280;51976;47.332;9.404;2024-01-06T05:18:29;91649.72;;;2.23;100.00
65376;BME280;51976;47.332;9.404;2024-01-06T05:20:54;91656.91;;;2.23;100.00
65376;BME280;51976;47.332;9.404;2024-01-06T05:23:20;91655.31;;;2.17;100.00
65376;BME280;51976;47.332;9.404;2024-01-06T05:25:46;91652.91;;;2.20;100.00
65376;BME280;51976;47.332;9.404;2024-01-06T05:28:11;91664.59;;;2.14;100.00
65376;BME280;51976;47.332;9.404;2024-01-06T05:30:36;91661.69;;;2.21;100.00
65376;BME280;51976;47.332;9.404;2024-01-06T05:33:02;91651.31;;;2.19;100.00
65376;BME280;51976;47.332;9.404;2024-01-06T05:35:28;91655.31;;;2.17;100.00
65376;BME280;51976;47.332;9.404;2024-01-06T05:37:54;91655.53;;;2.10;100.00
65376;BME280;51976;47.332;9.404;2024-01-06T05:40:19;91667.25;;;2.14;100.00
65376;BME280;51976;47.332;9.404;2024-01-06T05:42:45;91682.16;;;2.15;100.00
65376;BME280;51976;47.332;9.404;2024-01-06T05:45:11;91695.19;;;2.17;100.00
65376;BME280;51976;47.332;9.404;2024-01-06T05:47:38;91697.84;;;2.22;100.00
65376;BME280;51976;47.332;9.404;2024-01-06T05:50:03;91687.78;;;2.29;100.00
65376;BME280;51976;47.332;9.404;2024-01-06T05:52:29;91675.53;;;2.18;100.00
65376;BME280;51976;47.332;9.404;2024-01-06T05:54:54;91681.09;;;2.16;100.00
65376;BME280;51976;47.332;9.404;2024-01-06T05:57:19;91691.75;;;2.26;100.00
65376;BME280;51976;47.332;9.404;2024-01-06T05:59:45;91679.53;;;2.25;100.00
65376;BME280;51976;47.332;9.404;2024-01-06T06:02:11;91680.56;;;2.24;100.00
65376;BME280;51976;47.332;9.404;2024-01-06T06:04:36;91666.47;;;2.14;100.00
65376;BME280;51976;47.332;9.404;2024-01-06T06:07:02;91694.09;;;2.13;100.00
65376;BME280;51976;47.332;9.404;2024-01-06T06:09:28;91690.38;;;2.14;100.00
65376;BME280;51976;47.332;9.404;2024-01-06T06:11:54;91684.75;;;2.05;100.00
65376;BME280;51976;47.332;9.404;2024-01-06T06:14:19;91685.28;;;2.02;100.00
65376;BME280;51976;47.332;9.404;2024-01-06T06:16:44;91687.44;;;2.10;100.00
65376;BME280;51976;47.332;9.404;2024-01-06T06:19:10;91680.31;;;2.16;100.00
65376;BME280;51976;47.332;9.404;2024-01-06T06:21:35;91696.25;;;2.16;100.00
65376;BME280;51976;47.332;9.404;2024-01-06T06:24:01;91702.38;;;2.16;100.00
65376;BME280;51976;47.332;9.404;2024-01-06T06:26:28;91705.53;;;2.13;100.00
65376;BME280;51976;47.332;9.404;2024-01-06T06:28:53;91704.72;;;2.08;100.00
65376;BME280;51976;47.332;9.404;2024-01-06T06:31:19;91695.97;;;2.12;100.00
65376;BME280;51976;47.332;9.404;2024-01-06T06:33:44;91703.41;;;2.10;100.00
65376;BME280;51976;47.332;9.404;2024-01-06T06:36:10;91707.59;;;2.01;100.00
65376;BME280;51976;47.332;9.404;2024-01-06T06:38:35;91708.44;;;2.07;100.00
65376;BME280;51976;47.332;9.404;2024-01-06T06:41:01;91713.50;;;2.13;100.00
65376;BME280;51976;47.332;9.404;2024-01-06T06:43:26;91717.78;;;2.14;100.00
65376;BME280;51976;47.332;9.404;2024-01-06T06:45:52;91718.31;;;2.16;100.00
65376;BME280;51976;47.332;9.404;2024-01-06T06:48:17;91716.47;;;2.17;100.00
65376;BME280;51976;47.332;9.404;2024-01-06T06:50:43;91715.66;;;2.16;100.00
65376;BME280;51976;47.332;9.404;2024-01-06T06:53:08;91715.13;;;2.14;100.00
65376;BME280;51976;47.332;9.404;2024-01-06T06:55:34;91717.78;;;2.14;100.00
65376;BME280;51976;47.332;9.404;2024-01-06T06:57:59;91719.91;;;2.17;100.00
65376;BME280;51976;47.332;9.404;2024-01-06T07:00:25;91719.91;;;2.17;100.00
65376;BME280;51976;47.332;9.404;2024-01-06T07:02:50;91720.97;;;2.16;100.00
65376;BME280;51976;47.332;9.404;2024-01-06T07:05:15;91724.69;;;2.15;100.00
65376;BME280;51976;47.332;9.404;2024-01-06T07:07:42;91727.09;;;2.17;100.00
65376;BME280;51976;47.332;9.404;2024-01-06T07:10:12;91727.09;;;2.22;100.00
65376;BME280;51976;47.332;9.404;2024-01-06T07:12:37;91725.50;;;2.21;100.00
65376;BME280;51976;47.332;9.404;2024-01-06T07:15:03;91728.44;;;2.24;100.00
65376;BME280;51976;47.332;9.404;2024-01-06T07:17:28;91735.34;;;2.25;100.00
65376;BME280;51976;47.332;9.404;2024-01-06T07:19:54;91735.34;;;2.25;100.00
65376;BME280;51976;47.332;9.404;2024-01-06T07:22:19;91739.91;;;2.30;100.00
65376;BME280;51976;47.332;9.404;2024-01-06T07:24:45;91739.66;;;2.31;100.00
65376;BME280;51976;47.332;9.404;2024-01-06T07:27:11;91740.16;;;2.28;100.00
65376;BME280;51976;47.332;9.404;2024-01-06T07:29:36;91739.03;;;2.14;100.00
65376;BME280;51976;47.332;9.404;2024-01-06T07:32:03;91751.28;;;2.20;100.00
65376;BME280;51976;47.332;9.404;2024-01-06T07:34:28;91749.41;;;2.16;100.00
65376;BME280;51976;47.332;9.404;2024-01-06T07:36:53;91756.09;;;2.18;100.00
65376;BME280;51976;47.332;9.404;2024-01-06T07:39:19;91755.28;;;2.18;100.00
65376;BME280;51976;47.332;9.404;2024-01-06T07:41:44;91753.44;;;2.18;100.00
65376;BME280;51976;47.332;9.404;2024-01-06T07:44:12;91760.59;;;2.23;100.00
65376;BME280;51976;47.332;9.404;2024-01-06T07:46:40;91752.38;;;2.24;100.00
65376;BME280;51976;47.332;9.404;2024-01-06T07:49:06;91759.56;;;2.29;100.00
65376;BME280;51976;47.332;9.404;2024-01-06T07:51:31;91767.00;;;2.27;100.00
65376;BME280;51976;47.332;9.404;2024-01-06T07:53:57;91767.81;;;2.27;100.00
65376;BME280;51976;47.332;9.404;2024-01-06T07:56:23;91773.19;;;2.37;100.00
65376;BME280;51976;47.332;9.404;2024-01-06T07:58:48;91761.75;;;2.37;100.00
65376;BME280;51976;47.332;9.404;2024-01-06T08:01:14;91768.44;;;2.45;100.00
65376;BME280;51976;47.332;9.404;2024-01-06T08:03:39;91766.81;;;2.38;100.00
65376;BME280;51976;47.332;9.404;2024-01-06T08:06:05;91772.69;;;2.41;100.00
65376;BME280;51976;47.332;9.404;2024-01-06T08:08:31;91772.13;;;2.38;100.00
65376;BME280;51976;47.332;9.404;2024-01-06T08:10:56;91773.19;;;2.37;100.00
65376;BME280;51976;47.332;9.404;2024-01-06T08:13:22;91767.88;;;2.37;100.00
65376;BME280;51976;47.332;9.404;2024-01-06T08:15:47;91771.59;;;2.36;100.00
65376;BME280;51976;47.332;9.404;2024-01-06T08:18:13;91777.16;;;2.35;100.00
65376;BME280;51976;47.332;9.404;2024-01-06T08:20:39;91780.38;;;2.37;100.00
65376;BME280;51976;47.332;9.404;2024-01-06T08:23:04;91779.09;;;2.45;100.00
65376;BME280;51976;47.332;9.404;2024-01-06T08:25:29;91776.94;;;2.42;100.00
65376;BME280;51976;47.332;9.404;2024-01-06T08:27:55;91784.25;;;2.14;100.00
65376;BME280;51976;47.332;9.404;2024-01-06T08:30:20;91780.81;;;2.24;100.00
65376;BME280;51976;47.332;9.404;2024-01-06T08:32:45;91786.97;;;2.29;100.00
65376;BME280;51976;47.332;9.404;2024-01-06T08:35:11;91783.81;;;2.32;100.00
65376;BME280;51976;47.332;9.404;2024-01-06T08:37:36;91783.00;;;2.32;100.00
65376;BME280;51976;47.332;9.404;2024-01-06T08:40:02;91786.97;;;2.29;100.00
65376;BME280;51976;47.332;9.404;2024-01-06T08:42:29;91791.00;;;2.37;100.00
65376;BME280;51976;47.332;9.404;2024-01-06T08:44:55;91795.00;;;2.40;100.00
65376;BME280;51976;47.332;9.404;2024-01-06T08:47:20;91792.91;;;2.42;100.00
65376;BME280;51976;47.332;9.404;2024-01-06T08:49:46;91799.28;;;2.41;100.00
65376;BME280;51976;47.332;9.404;2024-01-06T08:52:11;91790.47;;;2.35;100.00
65376;BME280;51976;47.332;9.404;2024-01-06T08:54:36;91794.25;;;2.44;100.00
65376;BME280;51976;47.332;9.404;2024-01-06T08:57:02;91791.59;;;2.44;100.00
65376;BME280;51976;47.332;9.404;2024-01-06T08:59:27;91796.91;;;2.44;100.00
65376;BME280;51976;47.332;9.404;2024-01-06T09:01:53;91795.00;;;2.40;100.00
65376;BME280;51976;47.332;9.404;2024-01-06T09:04:18;91793.44;;;2.44;100.00
65376;BME280;51976;47.332;9.404;2024-01-06T09:06:43;91800.38;;;2.45;100.00
65376;BME280;51976;47.332;9.404;2024-01-06T09:09:10;91793.19;;;2.50;100.00
65376;BME280;51976;47.332;9.404;2024-01-06T09:11:35;91796.13;;;2.54;100.00
65376;BME280;51976;47.332;9.404;2024-01-06T09:14:01;91795.88;;;2.55;100.00
65376;BME280;51976;47.332;9.404;2024-01-06T09:16:26;91792.91;;;2.47;100.00
65376;BME280;51976;47.332;9.404;2024-01-06T09:18:52;91792.91;;;2.47;100.00
65376;BME280;51976;47.332;9.404;2024-01-06T09:21:17;91799.84;;;2.53;100.00
65376;BME280;51976;47.332;9.404;2024-01-06T09:23:43;91799.84;;;2.53;100.00
65376;BME280;51976;47.332;9.404;2024-01-06T09:26:08;91797.41;;;2.41;100.00
65376;BME280;51976;47.332;9.404;2024-01-06T09:28:34;91805.09;;;2.37;100.00
65376;BME280;51976;47.332;9.404;2024-01-06T09:30:59;91814.91;;;2.32;100.00
65376;BME280;51976;47.332;9.404;2024-01-06T09:33:24;91813.09;;;2.37;100.00
65376;BME280;51976;47.332;9.404;2024-01-06T09:35:50;91812.53;;;2.35;100.00
65376;BME280;51976;47.332;9.404;2024-01-06T09:38:15;91820.56;;;2.41;100.00
65376;BME280;51976;47.332;9.404;2024-01-06T09:40:43;91819.25;;;2.43;100.00
65376;BME280;51976;47.332;9.404;2024-01-06T09:43:10;91822.44;;;2.45;100.00
65376;BME280;51976;47.332;9.404;2024-01-06T09:45:36;91827.69;;;2.35;100.00
65376;BME280;51976;47.332;9.404;2024-01-06T09:48:11;91829.00;;;2.32;100.00
65376;BME280;51976;47.332;9.404;2024-01-06T09:50:41;91822.66;;;2.38;100.00
65376;BME280;51976;47.332;9.404;2024-01-06T09:53:10;91822.09;;;2.31;100.00
65376;BME280;51976;47.332;9.404;2024-01-06T09:55:36;91824.28;;;2.40;100.00
65376;BME280;51976;47.332;9.404;2024-01-06T09:58:02;91823.75;;;2.48;100.00
65376;BME280;51976;47.332;9.404;2024-01-06T10:00:28;91816.03;;;2.41;100.00
65376;BME280;51976;47.332;9.404;2024-01-06T10:02:54;91821.09;;;2.43;100.00
65376;BME280;51976;47.332;9.404;2024-01-06T10:05:20;91819.25;;;2.43;100.00
65376;BME280;51976;47.332;9.404;2024-01-06T10:07:46;91817.38;;;2.49;100.00
65376;BME280;51976;47.332;9.404;2024-01-06T10:10:13;91815.19;;;2.35;100.00
65376;BME280;51976;47.332;9.404;2024-01-06T10:12:40;91825.81;;;2.30;100.00
65376;BME280;51976;47.332;9.404;2024-01-06T10:15:08;91817.91;;;2.41;100.00
65376;BME280;51976;47.332;9.404;2024-01-06T10:17:36;91819.91;;;2.23;100.00
65376;BME280;51976;47.332;9.404;2024-01-06T10:20:02;91830.06;;;2.31;100.00
65376;BME280;51976;47.332;9.404;2024-01-06T10:22:30;91839.09;;;2.30;100.00
65376;BME280;51976;47.332;9.404;2024-01-06T10:24:56;91835.31;;;2.21;100.00
65376;BME280;51976;47.332;9.404;2024-01-06T10:27:21;91828.34;;;2.10;100.00
65376;BME280;51976;47.332;9.404;2024-01-06T10:29:47;91840.63;;;2.16;100.00
65376;BME280;51976;47.332;9.404;2024-01-06T10:32:12;91825.16;;;2.13;100.00
65376;BME280;51976;47.332;9.404;2024-01-06T10:34:38;91839.06;;;2.25;100.00
65376;BME280;51976;47.332;9.404;2024-01-06T10:37:03;91828.38;;;2.15;100.00
65376;BME280;51976;47.332;9.404;2024-01-06T10:39:28;91827.38;;;2.26;100.00
65376;BME280;51976;47.332;9.404;2024-01-06T10:41:55;91836.22;;;2.37;100.00
65376;BME280;51976;47.332;9.404;2024-01-06T10:44:21;91824.56;;;2.43;100.00
65376;BME280;51976;47.332;9.404;2024-01-06T10:46:48;91813.97;;;2.53;100.00
65376;BME280;51976;47.332;9.404;2024-01-06T10:49:15;91813.38;;;2.41;100.00
65376;BME280;51976;47.332;9.404;2024-01-06T10:51:40;91810.94;;;2.34;100.00
65376;BME280;51976;47.332;9.404;2024-01-06T10:54:06;91816.03;;;2.41;100.00
65376;BME280;51976;47.332;9.404;2024-01-06T10:56:36;91808.53;;;2.33;100.00
65376;BME280;51976;47.332;9.404;2024-01-06T10:59:03;91815.50;;;2.39;100.00
65376;BME280;51976;47.332;9.404;2024-01-06T11:01:29;91811.25;;;2.48;100.00
65376;BME280;51976;47.332;9.404;2024-01-06T11:03:54;91808.28;;;2.34;100.00
65376;BME280;51976;47.332;9.404;2024-01-06T11:06:22;91808.31;;;2.40;100.00
65376;BME280;51976;47.332;9.404;2024-01-06T11:08:57;91813.44;;;2.56;100.00
65376;BME280;51976;47.332;9.404;2024-01-06T11:11:25;91807.34;;;2.61;100.00
65376;BME280;51976;47.332;9.404;2024-01-06T11:13:50;91805.50;;;2.61;100.00
65376;BME280;51976;47.332;9.404;2024-01-06T11:16:36;91797.19;;;2.53;100.00
65376;BME280;51976;47.332;9.404;2024-01-06T11:19:02;91793.25;;;2.60;100.00
65376;BME280;51976;47.332;9.404;2024-01-06T11:21:33;91797.78;;;2.60;100.00
65376;BME280;51976;47.332;9.404;2024-01-06T11:24:13;91804.69;;;2.61;100.00
65376;BME280;51976;47.332;9.404;2024-01-06T11:26:42;91807.88;;;2.58;100.00
65376;BME280;51976;47.332;9.404;2024-01-06T11:29:08;91802.56;;;2.63;100.00
65376;BME280;51976;47.332;9.404;2024-01-06T11:31:34;91804.69;;;2.61;100.00
65376;BME280;51976;47.332;9.404;2024-01-06T11:34:14;91802.53;;;2.58;100.00
65376;BME280;51976;47.332;9.404;2024-01-06T11:36:39;91795.09;;;2.60;100.00
65376;BME280;51976;47.332;9.404;2024-01-06T11:39:05;91796.16;;;2.59;100.00
65376;BME280;51976;47.332;9.404;2024-01-06T11:41:49;91798.84;;;2.64;100.00
65376;BME280;51976;47.332;9.404;2024-01-06T11:44:18;91807.94;;;2.68;100.00
65376;BME280;51976;47.332;9.404;2024-01-06T11:46:45;91791.69;;;2.69;100.00
65376;BME280;51976;47.332;9.404;2024-01-06T11:49:15;91787.19;;;2.75;100.00
65376;BME280;51976;47.332;9.404;2024-01-06T11:51:41;91785.31;;;2.76;100.00
65376;BME280;51976;47.332;9.404;2024-01-06T11:54:06;91777.88;;;2.72;100.00
65376;BME280;51976;47.332;9.404;2024-01-06T11:56:32;91773.88;;;2.70;100.00
65376;BME280;51976;47.332;9.404;2024-01-06T11:58:57;91775.22;;;2.83;100.00
65376;BME280;51976;47.332;9.404;2024-01-06T12:01:23;91767.50;;;2.81;100.00
65376;BME280;51976;47.332;9.404;2024-01-06T12:03:54;91772.88;;;2.91;100.00
65376;BME280;51976;47.332;9.404;2024-01-06T12:06:20;91764.91;;;3.06;100.00
65376;BME280;51976;47.332;9.404;2024-01-06T12:08:48;91762.78;;;3.03;100.00
65376;BME280;51976;47.332;9.404;2024-01-06T12:11:17;91761.16;;;2.92;100.00
65376;BME280;51976;47.332;9.404;2024-01-06T12:13:44;91754.22;;;2.86;100.00
65376;BME280;51976;47.332;9.404;2024-01-06T12:16:09;91745.72;;;2.89;100.00
65376;BME280;51976;47.332;9.404;2024-01-06T12:18:35;91748.59;;;2.78;100.00
65376;BME280;51976;47.332;9.404;2024-01-06T12:21:00;91755.50;;;2.73;100.00
65376;BME280;51976;47.332;9.404;2024-01-06T12:23:26;91758.16;;;2.63;100.00
65376;BME280;51976;47.332;9.404;2024-01-06T12:25:55;91751.00;;;2.69;100.00
65376;BME280;51976;47.332;9.404;2024-01-06T12:28:21;91753.09;;;2.62;100.00
65376;BME280;51976;47.332;9.404;2024-01-06T12:30:46;91747.50;;;2.63;100.00
65376;BME280;51976;47.332;9.404;2024-01-06T12:33:12;91748.84;;;2.76;100.00
65376;BME280;51976;47.332;9.404;2024-01-06T12:35:39;91753.69;;;2.89;100.00
65376;BME280;51976;47.332;9.404;2024-01-06T12:38:04;91748.41;;;2.94;100.00
65376;BME280;51976;47.332;9.404;2024-01-06T12:40:32;91744.13;;;2.88;100.00
65376;BME280;51976;47.332;9.404;2024-01-06T12:43:00;91749.47;;;2.98;100.00
65376;BME280;51976;47.332;9.404;2024-01-06T12:45:25;91749.22;;;3.00;100.00
65376;BME280;51976;47.332;9.404;2024-01-06T12:47:53;91739.34;;;2.90;100.00
65376;BME280;51976;47.332;9.404;2024-01-06T12:50:19;91744.94;;;2.94;100.00
65376;BME280;51976;47.332;9.404;2024-01-06T12:52:44;91746.78;;;2.88;100.00